Time;durP1;ratioP1;P1;durP2;ratioP2;P2;SDS_P1;SDS_P2;PMS_P1;PMS_P2;Temp;Humidity;BMP_temperature;BMP_pressure;BME280_temperature;BME280_humidity;BME280_pressure;Samples;Min_cycle;Max_cycle;Signal;HPM_P1;HPM_P2
2021/04/28 00:02:01;;;;;;;4.75;2.58;;;15.60;99.90;;;;;;5065611;28;20089;-68
2021/04/28 00:04:27;;;;;;;6.90;2.25;;;15.60;99.90;;;;;;5064525;28;20067;-69
2021/04/28 00:06:53;;;;;;;4.97;2.50;;;15.60;99.90;;;;;;5062310;28;20490;-70
2021/04/28 00:09:19;;;;;;;5.32;3.03;;;15.50;99.90;;;;;;5063483;28;20024;-69
2021/04/28 00:11:45;;;;;;;4.45;2.22;;;15.40;99.90;;;;;;5060337;28;20383;-68
2021/04/28 00:14:11;;;;;;;7.10;2.85;;;15.40;99.90;;;;;;5049232;28;20025;-69
2021/04/28 00:16:38;;;;;;;5.18;2.47;;;15.50;99.90;;;;;;5048776;28;20037;-69
2021/04/28 00:19:04;;;;;;;5.20;2.60;;;15.50;99.90;;;;;;5065195;28;20033;-70
2021/04/28 00:21:31;;;;;;;6.18;2.90;;;15.40;99.90;;;;;;5046566;28;20550;-70
2021/04/28 00:23:58;;;;;;;5.30;2.10;;;15.40;99.90;;;;;;5044365;28;20030;-69
2021/04/28 00:26:24;;;;;;;6.28;2.50;;;15.40;99.90;;;;;;5062152;28;20016;-67
2021/04/28 00:28:50;;;;;;;4.03;2.60;;;15.40;99.90;;;;;;5045071;28;20276;-71
2021/04/28 00:31:17;;;;;;;12.27;2.45;;;15.30;99.90;;;;;;5046304;28;20033;-69
2021/04/28 00:33:42;;;;;;;5.38;2.72;;;15.30;99.90;;;;;;5050685;28;20156;-70
2021/04/28 00:36:08;;;;;;;8.93;2.55;;;15.30;99.90;;;;;;5058219;28;20139;-70
2021/04/28 00:38:34;;;;;;;3.30;2.65;;;15.30;99.90;;;;;;5051956;28;20064;-70
2021/04/28 00:41:05;;;;;;;6.13;2.83;;;15.20;99.90;;;;;;5050661;28;20028;-68
2021/04/28 00:43:31;;;;;;;7.20;3.13;;;15.20;99.90;;;;;;5040918;28;20159;-70
2021/04/28 00:45:57;;;;;;;5.43;2.90;;;15.10;99.90;;;;;;5042445;28;20089;-68
2021/04/28 00:48:23;;;;;;;5.78;2.40;;;15.20;99.90;;;;;;5042271;28;20028;-68
2021/04/28 00:50:51;;;;;;;8.23;2.95;;;15.20;99.90;;;;;;5050050;28;20518;-69
2021/04/28 00:53:20;;;;;;;6.63;3.33;;;15.10;99.90;;;;;;5046159;28;20159;-68
2021/04/28 00:55:46;;;;;;;6.30;3.28;;;15.10;99.90;;;;;;5075983;28;20380;-68
2021/04/28 00:58:12;;;;;;;7.57;3.00;;;15.10;99.90;;;;;;5054086;28;20037;-68
2021/04/28 01:00:40;;;;;;;6.55;2.92;;;15.10;99.90;;;;;;5061889;28;20402;-68
2021/04/28 01:03:07;;;;;;;9.02;3.10;;;15.10;99.90;;;;;;5054391;28;20028;-70
2021/04/28 01:05:33;;;;;;;7.32;3.25;;;15.10;99.90;;;;;;5050406;28;20047;-68
2021/04/28 01:07:59;;;;;;;7.47;2.63;;;15.00;99.90;;;;;;5044117;28;20553;-69
2021/04/28 01:10:28;;;;;;;4.57;2.50;;;15.00;99.90;;;;;;5044062;28;21255;-69
2021/04/28 01:12:54;;;;;;;7.22;3.25;;;15.00;99.90;;;;;;5049647;28;20132;-67
2021/04/28 01:15:27;;;;;;;5.07;2.63;;;14.90;99.90;;;;;;5052483;28;20029;-69
2021/04/28 01:17:54;;;;;;;7.18;3.47;;;15.00;99.90;;;;;;5041584;28;20029;-69
2021/04/28 01:20:23;;;;;;;6.05;3.03;;;14.90;99.90;;;;;;5051217;28;20508;-69
2021/04/28 01:22:51;;;;;;;9.13;4.28;;;14.80;99.90;;;;;;5066396;28;20063;-69
2021/04/28 01:25:20;;;;;;;7.65;2.75;;;14.80;99.90;;;;;;5066652;28;20032;-68
2021/04/28 01:28:12;;;;;;;6.97;2.58;;;14.80;99.90;;;;;;5066631;28;20020;-70
2021/04/28 01:30:56;;;;;;;5.72;3.00;;;14.80;99.90;;;;;;5064414;28;20335;-69
2021/04/28 01:33:51;;;;;;;6.95;3.30;;;14.70;99.90;;;;;;5050904;28;20031;-70
2021/04/28 01:36:18;;;;;;;;;;;14.70;99.90;;;;;;5052713;28;20618;-65
2021/04/28 01:38:46;;;;;;;9.25;3.05;;;14.70;99.90;;;;;;5062891;28;20028;-69
2021/04/28 01:41:12;;;;;;;5.43;3.25;;;14.70;99.90;;;;;;5065751;28;20021;-67
2021/04/28 01:43:40;;;;;;;5.00;3.22;;;14.50;99.90;;;;;;5062171;28;20543;-69
2021/04/28 01:46:06;;;;;;;7.25;3.08;;;14.60;99.90;;;;;;5061802;28;20529;-69
2021/04/28 01:48:33;;;;;;;4.32;3.00;;;14.70;99.90;;;;;;5059030;28;20048;-69
2021/04/28 01:51:00;;;;;;;5.10;3.00;;;14.60;99.90;;;;;;5065038;28;20029;-69
2021/04/28 01:53:27;;;;;;;7.20;2.97;;;14.60;99.90;;;;;;5063726;28;20040;-68
2021/04/28 01:55:56;;;;;;;8.13;3.30;;;14.60;99.90;;;;;;5064032;28;20032;-68
2021/04/28 01:58:25;;;;;;;5.43;2.42;;;14.60;99.90;;;;;;5058590;28;20417;-69
2021/04/28 02:00:52;;;;;;;3.55;2.10;;;14.60;99.90;;;;;;5052487;28;20028;-69
2021/04/28 02:03:21;;;;;;;5.35;2.72;;;14.70;99.90;;;;;;5065868;28;20036;-67
2021/04/28 02:05:47;;;;;;;7.10;2.40;;;14.70;99.90;;;;;;5064804;28;20035;-68
2021/04/28 02:08:13;;;;;;;6.78;2.67;;;14.70;99.90;;;;;;5052902;28;20218;-69
2021/04/28 02:10:39;;;;;;;6.25;3.40;;;14.60;99.90;;;;;;5064902;28;20033;-68
2021/04/28 02:13:05;;;;;;;7.95;2.42;;;14.50;99.90;;;;;;5064879;28;20032;-68
2021/04/28 02:15:32;;;;;;;4.75;2.40;;;14.40;99.90;;;;;;5065145;28;20435;-68
2021/04/28 02:18:02;;;;;;;6.10;3.20;;;14.50;99.90;;;;;;5064827;28;20079;-69
2021/04/28 02:20:29;;;;;;;6.05;2.42;;;14.40;99.90;;;;;;5063254;28;20507;-68
2021/04/28 02:22:56;;;;;;;7.30;3.08;;;14.50;99.90;;;;;;5065393;28;20016;-68
2021/04/28 02:25:22;;;;;;;7.43;2.60;;;14.40;99.90;;;;;;5054764;28;20025;-69
2021/04/28 02:27:54;;;;;;;6.65;2.90;;;14.40;99.90;;;;;;5064356;28;20037;-67
2021/04/28 02:30:22;;;;;;;4.35;2.42;;;14.40;99.90;;;;;;5063605;28;20103;-71
2021/04/28 02:32:50;;;;;;;10.07;3.55;;;14.40;99.90;;;;;;5063084;28;20035;-70
2021/04/28 02:35:18;;;;;;;5.15;2.67;;;14.30;99.90;;;;;;5064501;28;20060;-70
2021/04/28 02:37:48;;;;;;;7.05;2.95;;;14.30;99.90;;;;;;5057329;28;20033;-69
2021/04/28 02:40:16;;;;;;;4.60;2.83;;;14.40;99.90;;;;;;5045295;28;20017;-69
2021/04/28 02:42:46;;;;;;;4.85;3.08;;;14.30;99.90;;;;;;5046517;28;20043;-70
2021/04/28 02:45:16;;;;;;;3.97;2.30;;;14.40;99.90;;;;;;5052953;28;20040;-69
2021/04/28 02:47:45;;;;;;;6.32;2.83;;;14.40;99.90;;;;;;5059115;28;20514;-69
2021/04/28 02:50:14;;;;;;;5.88;3.10;;;14.30;99.90;;;;;;5052043;28;20036;-68
2021/04/28 02:52:42;;;;;;;4.72;2.58;;;14.40;99.90;;;;;;5050140;28;20035;-68
2021/04/28 02:55:09;;;;;;;6.00;2.78;;;14.30;99.90;;;;;;5060451;28;20517;-68
2021/04/28 02:57:37;;;;;;;5.60;3.05;;;14.30;99.90;;;;;;5049665;28;20127;-68
2021/04/28 03:00:09;;;;;;;3.95;2.38;;;14.30;99.90;;;;;;5051198;28;20035;-68
2021/04/28 03:02:38;;;;;;;5.20;2.40;;;14.40;99.90;;;;;;5061560;28;20024;-68
2021/04/28 03:05:07;;;;;;;5.55;2.42;;;14.40;99.90;;;;;;5063542;28;20142;-68
2021/04/28 03:07:33;;;;;;;3.65;1.85;;;14.40;99.90;;;;;;5056570;28;20025;-69
2021/04/28 03:10:00;;;;;;;3.88;2.22;;;14.40;99.90;;;;;;5055388;28;20086;-69
2021/04/28 03:12:27;;;;;;;5.63;2.22;;;14.40;99.90;;;;;;5055210;28;20434;-69
2021/04/28 03:14:53;;;;;;;4.47;2.15;;;14.40;99.90;;;;;;5044843;28;20079;-69
2021/04/28 03:17:21;;;;;;;4.95;2.13;;;14.50;99.90;;;;;;5054635;28;20035;-68
2021/04/28 03:19:50;;;;;;;5.20;2.17;;;14.40;99.90;;;;;;5068208;28;20094;-68
2021/04/28 03:22:19;;;;;;;4.50;2.70;;;14.30;99.90;;;;;;5057885;28;20033;-67
2021/04/28 03:24:46;;;;;;;4.60;2.05;;;14.40;99.90;;;;;;5049246;28;20032;-68
2021/04/28 03:27:14;;;;;;;2.72;1.75;;;14.40;99.90;;;;;;5062579;28;20415;-68
2021/04/28 03:29:41;;;;;;;4.82;1.83;;;14.50;99.90;;;;;;5048058;28;20029;-70
2021/04/28 03:32:08;;;;;;;2.72;1.58;;;14.40;99.90;;;;;;5054798;28;20111;-68
2021/04/28 03:34:36;;;;;;;2.00;1.50;;;14.30;99.90;;;;;;5067746;28;20025;-69
2021/04/28 03:37:03;;;;;;;2.80;1.70;;;14.40;99.90;;;;;;5066680;28;20039;-69
2021/04/28 03:39:30;;;;;;;2.20;1.38;;;14.40;99.90;;;;;;5068194;28;20107;-69
2021/04/28 03:41:56;;;;;;;2.80;1.50;;;14.50;99.90;;;;;;5067566;28;20078;-69
2021/04/28 03:44:23;;;;;;;3.17;2.00;;;14.50;99.90;;;;;;5068051;28;20043;-70
2021/04/28 03:46:49;;;;;;;4.35;1.77;;;14.60;99.90;;;;;;5067069;28;20024;-68
2021/04/28 03:49:15;;;;;;;3.90;2.10;;;14.70;99.90;;;;;;5068576;28;20028;-68
2021/04/28 03:51:43;;;;;;;4.00;2.10;;;14.70;99.90;;;;;;5067218;28;20021;-68
2021/04/28 03:54:09;;;;;;;2.72;1.75;;;14.70;99.90;;;;;;5063600;28;20259;-69
2021/04/28 03:56:36;;;;;;;2.25;1.60;;;14.60;99.90;;;;;;5056253;28;20390;-67
2021/04/28 03:59:03;;;;;;;3.30;2.38;;;14.60;99.90;;;;;;5066889;28;20047;-66
2021/04/28 04:01:29;;;;;;;2.08;1.50;;;14.50;99.90;;;;;;5065436;28;20029;-66
2021/04/28 04:03:56;;;;;;;5.15;2.80;;;14.50;99.90;;;;;;5064852;28;20033;-67
2021/04/28 04:06:22;;;;;;;3.13;1.98;;;14.30;99.90;;;;;;5068762;28;20031;-66
2021/04/28 04:08:47;;;;;;;2.92;2.10;;;14.40;99.90;;;;;;5064275;28;20024;-65
2021/04/28 04:11:13;;;;;;;3.05;1.63;;;14.30;99.90;;;;;;5068488;28;20033;-66
2021/04/28 04:13:39;;;;;;;2.33;1.60;;;14.40;99.90;;;;;;5049007;28;20119;-66
2021/04/28 04:16:05;;;;;;;4.55;2.22;;;14.30;99.90;;;;;;5061233;28;20029;-67
2021/04/28 04:18:30;;;;;;;3.10;2.17;;;14.30;99.90;;;;;;5067142;28;20511;-67
2021/04/28 04:20:56;;;;;;;2.25;1.50;;;14.00;99.90;;;;;;5068057;28;20024;-66
2021/04/28 04:23:22;;;;;;;2.15;1.70;;;14.10;99.90;;;;;;5068103;28;20052;-67
2021/04/28 04:25:47;;;;;;;3.33;2.10;;;14.10;99.90;;;;;;5068477;28;20542;-65
2021/04/28 04:28:13;;;;;;;2.85;1.80;;;14.10;99.90;;;;;;5056017;28;20494;-66
2021/04/28 04:30:39;;;;;;;2.75;1.52;;;14.10;99.90;;;;;;5048418;28;20399;-66
2021/04/28 04:33:05;;;;;;;2.47;1.85;;;14.10;99.90;;;;;;5061133;28;20029;-66
2021/04/28 04:35:30;;;;;;;3.30;1.60;;;14.10;99.90;;;;;;5066157;28;20115;-66
2021/04/28 04:37:57;;;;;;;2.67;1.60;;;14.00;99.90;;;;;;5065860;28;21006;-66
2021/04/28 04:40:24;;;;;;;3.95;1.85;;;13.90;99.90;;;;;;5065822;28;20456;-67
2021/04/28 04:42:50;;;;;;;1.90;1.52;;;14.00;99.90;;;;;;5067361;28;20024;-69
2021/04/28 04:45:16;;;;;;;2.78;1.73;;;14.00;99.90;;;;;;5066699;28;20021;-67
2021/04/28 04:47:42;;;;;;;2.72;2.35;;;14.00;99.90;;;;;;5064343;28;20077;-66
2021/04/28 04:50:08;;;;;;;3.45;2.72;;;13.70;99.90;;;;;;5066914;28;20021;-66
2021/04/28 04:52:36;;;;;;;3.08;1.90;;;13.80;99.90;;;;;;5065366;28;20036;-68
2021/04/28 04:55:03;;;;;;;3.17;1.52;;;13.90;99.90;;;;;;5063999;28;20031;-67
2021/04/28 04:57:29;;;;;;;2.15;1.92;;;13.90;99.90;;;;;;5063107;28;20035;-66
2021/04/28 04:59:55;;;;;;;3.38;2.28;;;13.80;99.90;;;;;;5065694;28;20021;-67
2021/04/28 05:02:21;;;;;;;3.05;1.80;;;13.80;99.90;;;;;;5065088;28;20495;-65
2021/04/28 05:04:48;;;;;;;3.28;2.03;;;13.80;99.90;;;;;;5067008;28;20116;-66
2021/04/28 05:07:14;;;;;;;2.40;1.55;;;13.70;99.90;;;;;;5058612;28;20043;-65
2021/04/28 05:09:40;;;;;;;2.58;1.77;;;13.70;99.90;;;;;;5065752;28;20033;-65
2021/04/28 05:12:06;;;;;;;2.80;2.15;;;13.70;99.90;;;;;;5063040;28;20028;-66
2021/04/28 05:14:32;;;;;;;3.05;1.77;;;13.70;99.90;;;;;;5063834;28;20101;-66
2021/04/28 05:16:58;;;;;;;2.90;2.33;;;13.80;99.90;;;;;;5060773;28;20162;-66
2021/04/28 05:19:24;;;;;;;3.30;2.00;;;13.70;99.90;;;;;;5046332;28;20032;-66
2021/04/28 05:21:50;;;;;;;3.15;2.25;;;13.90;99.90;;;;;;5046125;28;20039;-68
2021/04/28 05:24:16;;;;;;;3.92;1.83;;;13.80;99.90;;;;;;5050118;28;20025;-66
2021/04/28 05:26:42;;;;;;;2.53;1.67;;;13.90;99.90;;;;;;5063625;28;20043;-66
2021/04/28 05:29:08;;;;;;;2.10;1.63;;;13.80;99.90;;;;;;5047586;28;20028;-66
2021/04/28 05:31:33;;;;;;;2.63;1.67;;;13.80;99.90;;;;;;5053445;28;20085;-67
2021/04/28 05:33:59;;;;;;;3.42;2.00;;;14.10;99.90;;;;;;5060317;28;20025;-64
2021/04/28 05:36:25;;;;;;;4.25;2.40;;;14.00;99.90;;;;;;5065788;28;20390;-65
2021/04/28 05:38:54;;;;;;;4.82;2.90;;;13.90;99.90;;;;;;5065615;28;20108;-66
2021/04/28 05:41:20;;;;;;;6.57;3.42;;;13.90;99.90;;;;;;5063351;28;20060;-65
2021/04/28 05:43:46;;;;;;;4.15;2.65;;;13.90;99.90;;;;;;5047688;28;20071;-65
2021/04/28 05:46:13;;;;;;;2.95;2.40;;;14.00;99.90;;;;;;5047123;28;20032;-65
2021/04/28 05:48:40;;;;;;;3.58;2.78;;;14.00;99.90;;;;;;5064937;28;20052;-65
2021/04/28 05:51:05;;;;;;;4.20;2.88;;;13.90;99.90;;;;;;5063343;28;20085;-64
2021/04/28 05:53:31;;;;;;;3.60;2.40;;;13.80;99.90;;;;;;5064742;28;20562;-67
2021/04/28 05:56:02;;;;;;;3.08;2.50;;;13.90;99.90;;;;;;5056304;28;20108;-66
2021/04/28 05:58:28;;;;;;;4.38;3.42;;;14.00;99.90;;;;;;5065843;28;20044;-65
2021/04/28 06:00:54;;;;;;;4.82;2.60;;;13.80;99.90;;;;;;5060490;28;20025;-65
2021/04/28 06:03:19;;;;;;;2.78;2.20;;;13.90;99.90;;;;;;5065605;28;20085;-65
2021/04/28 06:05:45;;;;;;;2.03;1.60;;;14.00;99.90;;;;;;5067280;28;20032;-64
2021/04/28 06:08:13;;;;;;;2.70;2.00;;;14.10;99.90;;;;;;5063762;28;20025;-68
2021/04/28 06:10:39;;;;;;;2.80;2.17;;;14.00;99.90;;;;;;5066069;28;20028;-66
2021/04/28 06:13:04;;;;;;;4.22;2.20;;;13.90;99.90;;;;;;5065555;28;20038;-66
2021/04/28 06:15:30;;;;;;;3.17;2.45;;;14.00;99.90;;;;;;5066266;28;20178;-66
2021/04/28 06:17:56;;;;;;;5.03;2.60;;;14.00;99.90;;;;;;5053310;28;20078;-66
2021/04/28 06:20:22;;;;;;;4.57;2.25;;;14.00;99.90;;;;;;5065610;28;20065;-66
2021/04/28 06:22:47;;;;;;;2.72;2.08;;;14.00;99.90;;;;;;5066275;28;20059;-68
2021/04/28 06:25:14;;;;;;;2.30;2.10;;;14.00;99.90;;;;;;5052124;28;20036;-67
2021/04/28 06:27:40;;;;;;;3.17;1.95;;;14.00;99.90;;;;;;5062038;28;20033;-69
2021/04/28 06:30:07;;;;;;;3.00;2.60;;;14.00;99.90;;;;;;5066510;28;20383;-66
2021/04/28 06:32:33;;;;;;;2.30;1.98;;;14.00;99.90;;;;;;5065274;28;20039;-66
2021/04/28 06:34:59;;;;;;;4.90;3.20;;;14.00;99.90;;;;;;5063680;28;20028;-69
2021/04/28 06:37:25;;;;;;;3.65;2.50;;;13.80;99.90;;;;;;5058713;28;20029;-67
2021/04/28 06:39:50;;;;;;;2.72;1.88;;;13.90;99.90;;;;;;5064779;28;20052;-65
2021/04/28 06:42:18;;;;;;;2.08;1.55;;;14.00;99.90;;;;;;5064044;28;20581;-65
2021/04/28 06:44:44;;;;;;;2.65;1.95;;;14.00;99.90;;;;;;5066151;28;20134;-66
2021/04/28 06:47:10;;;;;;;2.65;1.92;;;14.00;99.90;;;;;;5065143;28;20483;-66
2021/04/28 06:49:35;;;;;;;2.45;1.85;;;14.00;99.90;;;;;;5065034;28;20025;-66
2021/04/28 06:52:01;;;;;;;3.38;1.92;;;13.90;99.90;;;;;;5064340;28;20108;-67
2021/04/28 06:54:27;;;;;;;2.58;1.83;;;14.00;99.90;;;;;;5068159;28;20449;-63
2021/04/28 06:56:52;;;;;;;3.08;1.83;;;14.00;99.90;;;;;;5068950;28;20044;-66
2021/04/28 06:59:19;;;;;;;1.67;1.58;;;14.00;99.90;;;;;;5055048;28;20051;-64
2021/04/28 07:01:49;;;;;;;3.70;2.28;;;14.10;99.90;;;;;;5053678;28;20111;-66
2021/04/28 07:04:15;;;;;;;3.22;2.05;;;14.00;99.90;;;;;;5070196;28;20094;-65
2021/04/28 07:06:41;;;;;;;2.55;1.98;;;13.90;99.90;;;;;;5066545;28;20404;-68
2021/04/28 07:09:06;;;;;;;1.73;1.50;;;13.90;99.90;;;;;;5069845;28;20037;-68
2021/04/28 07:11:33;;;;;;;4.30;2.10;;;13.90;99.90;;;;;;5068966;28;20025;-67
2021/04/28 07:13:59;;;;;;;2.97;2.22;;;14.00;99.90;;;;;;5069798;28;20032;-65
2021/04/28 07:16:25;;;;;;;1.95;1.52;;;14.00;99.90;;;;;;5068999;28;20111;-67
2021/04/28 07:18:50;;;;;;;1.90;1.55;;;14.10;99.90;;;;;;5088137;28;20505;-66
2021/04/28 07:21:17;;;;;;;3.22;2.15;;;14.20;99.90;;;;;;5090324;28;20528;-67
2021/04/28 07:23:43;;;;;;;2.85;1.95;;;14.10;99.90;;;;;;5083518;28;20017;-68
2021/04/28 07:26:09;;;;;;;4.22;2.40;;;14.10;99.90;;;;;;5069263;28;20040;-66
2021/04/28 07:28:35;;;;;;;3.70;2.17;;;14.20;99.90;;;;;;5069049;28;20497;-65
2021/04/28 07:31:02;;;;;;;4.00;2.28;;;14.20;99.90;;;;;;5069229;28;20402;-65
2021/04/28 07:33:27;;;;;;;4.53;2.10;;;14.20;99.90;;;;;;5068447;28;20047;-65
2021/04/28 07:35:54;;;;;;;2.65;2.28;;;14.20;99.90;;;;;;5067399;28;20036;-66
2021/04/28 07:38:20;;;;;;;3.83;1.83;;;14.20;99.90;;;;;;5068885;28;20114;-61
2021/04/28 07:40:45;;;;;;;4.25;2.50;;;14.40;99.90;;;;;;5068234;28;20123;-68
2021/04/28 07:43:12;;;;;;;5.13;2.22;;;14.30;99.90;;;;;;5067954;28;20021;-64
2021/04/28 07:45:38;;;;;;;2.38;1.90;;;14.40;99.90;;;;;;5067038;28;20036;-64
2021/04/28 07:48:12;;;;;;;2.85;2.40;;;14.50;99.90;;;;;;5065357;28;20021;-64
2021/04/28 07:50:39;;;;;;;3.42;1.98;;;14.40;99.90;;;;;;5050352;28;20145;-69
2021/04/28 07:53:05;;;;;;;3.42;2.20;;;14.50;99.90;;;;;;5064219;28;20039;-66
2021/04/28 07:55:35;;;;;;;2.35;1.92;;;14.50;99.90;;;;;;5065090;28;20025;-66
2021/04/28 07:58:00;;;;;;;2.17;1.80;;;14.50;99.90;;;;;;5067061;28;20023;-68
2021/04/28 08:00:30;;;;;;;2.83;2.17;;;14.50;99.90;;;;;;5066151;28;20025;-64
2021/04/28 08:02:56;;;;;;;2.50;1.80;;;14.50;99.90;;;;;;5066284;28;20037;-66
2021/04/28 08:05:23;;;;;;;3.38;2.38;;;14.50;99.90;;;;;;5066914;28;20032;-64
2021/04/28 08:07:49;;;;;;;4.55;2.05;;;14.50;99.90;;;;;;5067648;28;20040;-68
2021/04/28 08:10:16;;;;;;;2.67;2.35;;;14.60;99.90;;;;;;5066996;28;20024;-66
2021/04/28 08:12:42;;;;;;;2.58;1.70;;;14.50;99.90;;;;;;5066750;28;20028;-67
2021/04/28 08:15:08;;;;;;;2.22;1.70;;;14.50;99.90;;;;;;5066812;28;20020;-68
2021/04/28 08:17:36;;;;;;;3.42;2.10;;;14.50;99.90;;;;;;5066453;28;20095;-65
2021/04/28 08:20:04;;;;;;;2.90;1.98;;;14.60;99.90;;;;;;5067038;28;20036;-64
2021/04/28 08:22:29;;;;;;;1.88;1.77;;;14.50;99.90;;;;;;5066486;28;20021;-67
2021/04/28 08:24:55;;;;;;;2.70;1.70;;;14.60;99.90;;;;;;5066632;28;20020;-68
2021/04/28 08:27:21;;;;;;;2.42;1.65;;;14.50;99.90;;;;;;5066392;28;20031;-66
2021/04/28 08:29:48;;;;;;;2.25;1.60;;;14.50;99.90;;;;;;5066910;28;20086;-69
2021/04/28 08:32:14;;;;;;;2.45;1.70;;;14.50;99.90;;;;;;5067284;28;20021;-67
2021/04/28 08:34:41;;;;;;;2.17;1.38;;;14.60;99.90;;;;;;5066434;28;20036;-62
2021/04/28 08:37:07;;;;;;;1.30;1.13;;;14.60;99.90;;;;;;5066382;28;20063;-66
2021/04/28 08:39:34;;;;;;;1.90;1.58;;;14.60;99.90;;;;;;5065527;28;20469;-67
2021/04/28 08:42:00;;;;;;;3.63;2.05;;;14.50;99.90;;;;;;5066362;28;20108;-69
2021/04/28 08:44:27;;;;;;;2.05;1.48;;;14.50;99.90;;;;;;5065788;28;20017;-65
2021/04/28 08:46:52;;;;;;;2.85;1.80;;;14.60;99.90;;;;;;5066166;28;20036;-65
2021/04/28 08:49:19;;;;;;;1.98;1.52;;;14.40;99.90;;;;;;5066980;28;20029;-66
2021/04/28 08:51:45;;;;;;;2.08;1.50;;;14.50;99.90;;;;;;5066069;28;20390;-68
2021/04/28 08:54:13;;;;;;;1.60;1.50;;;14.50;99.90;;;;;;5066055;28;20021;-68
2021/04/28 08:56:39;;;;;;;3.80;1.50;;;14.50;99.90;;;;;;5065792;28;20036;-67
2021/04/28 08:59:05;;;;;;;2.60;1.42;;;14.50;99.90;;;;;;5057211;28;20032;-67
2021/04/28 09:01:33;;;;;;;1.25;1.13;;;14.50;99.90;;;;;;5065690;28;20034;-65
2021/04/28 09:04:10;;;;;;;4.00;2.33;;;14.60;99.90;;;;;;5064447;28;20048;-66
2021/04/28 09:06:37;;;;;;;3.13;2.00;;;14.40;99.90;;;;;;5054624;28;20028;-68
2021/04/28 09:09:04;;;;;;;3.05;1.83;;;14.40;99.90;;;;;;5065666;28;20036;-69
2021/04/28 09:11:33;;;;;;;2.92;1.73;;;14.40;99.90;;;;;;5064866;28;20502;-65
2021/04/28 09:14:24;;;;;;;2.55;2.00;;;14.50;99.90;;;;;;5064815;28;20454;-64
2021/04/28 09:16:55;;;;;;;2.33;1.73;;;14.40;99.90;;;;;;5065904;28;20055;-68
2021/04/28 09:19:32;;;;;;;1.80;1.60;;;14.40;99.90;;;;;;5065814;28;20028;-66
2021/04/28 09:22:04;;;;;;;3.88;1.73;;;14.50;99.90;;;;;;5065382;28;20047;-61
2021/04/28 09:24:35;;;;;;;1.83;1.60;;;14.50;99.90;;;;;;5064519;28;20021;-63
2021/04/28 09:27:02;;;;;;;2.70;1.88;;;14.40;99.90;;;;;;5065578;28;20016;-64
2021/04/28 09:29:30;;;;;;;3.08;2.03;;;14.30;99.90;;;;;;5063917;28;20016;-64
2021/04/28 09:32:04;;;;;;;2.80;1.80;;;14.30;99.90;;;;;;5065375;28;20081;-65
2021/04/28 09:34:41;;;;;;;5.03;2.65;;;14.20;99.90;;;;;;5065384;28;20075;-62
2021/04/28 09:37:11;;;;;;;2.10;1.75;;;14.10;99.90;;;;;;5065838;28;20039;-66
2021/04/28 09:39:47;;;;;;;4.70;2.25;;;14.20;99.90;;;;;;5065769;28;20028;-63
2021/04/28 09:42:16;;;;;;;3.10;2.10;;;14.20;99.90;;;;;;5065741;28;20046;-64
2021/04/28 09:44:47;;;;;;;2.88;2.50;;;14.00;99.90;;;;;;5065589;28;20024;-63
2021/04/28 09:47:18;;;;;;;2.92;1.70;;;14.20;99.90;;;;;;5066041;28;20074;-63
2021/04/28 09:49:53;;;;;;;2.42;1.65;;;14.20;99.90;;;;;;5065612;28;20099;-65
2021/04/28 09:52:19;;;;;;;2.00;1.75;;;14.30;99.90;;;;;;5066158;28;20036;-62
2021/04/28 09:54:46;;;;;;;2.65;2.05;;;14.50;99.90;;;;;;5065842;28;20503;-64
2021/04/28 09:57:18;;;;;;;2.55;2.00;;;14.40;99.90;;;;;;5065793;28;20028;-64
2021/04/28 09:59:50;;;;;;;3.45;2.40;;;14.50;99.90;;;;;;5065306;28;20496;-65
2021/04/28 10:02:32;;;;;;;2.67;2.10;;;14.50;99.90;;;;;;5066088;28;20490;-63
2021/04/28 10:05:19;;;;;;;4.72;1.90;;;14.50;99.90;;;;;;5065487;28;20414;-63
2021/04/28 10:07:44;;;;;;;3.03;2.20;;;14.60;99.90;;;;;;5065796;28;20103;-64
2021/04/28 10:10:12;;;;;;;4.03;2.10;;;14.50;99.90;;;;;;5065095;28;20116;-63
2021/04/28 10:12:37;;;;;;;4.22;2.75;;;14.60;99.90;;;;;;5065362;28;20031;-66
2021/04/28 10:15:05;;;;;;;4.90;2.42;;;14.70;99.90;;;;;;5064985;28;20028;-64
2021/04/28 10:17:32;;;;;;;3.63;2.35;;;14.60;99.90;;;;;;5065146;28;20085;-65
2021/04/28 10:19:58;;;;;;;3.65;2.33;;;14.70;99.90;;;;;;5065594;28;20029;-65
2021/04/28 10:22:25;;;;;;;2.88;2.00;;;14.80;99.90;;;;;;5064998;28;20081;-62
2021/04/28 10:24:56;;;;;;;3.95;2.33;;;14.90;99.90;;;;;;5066964;28;20021;-65
2021/04/28 10:27:23;;;;;;;2.33;1.90;;;14.90;99.90;;;;;;5071884;28;20076;-64
2021/04/28 10:29:51;;;;;;;2.60;1.77;;;14.90;99.90;;;;;;5072427;28;20039;-63
2021/04/28 10:32:18;;;;;;;3.03;2.42;;;15.10;99.90;;;;;;5072548;28;20036;-63
2021/04/28 10:34:56;;;;;;;2.13;1.80;;;15.00;99.90;;;;;;5071731;28;20025;-67
2021/04/28 10:37:25;;;;;;;2.65;1.90;;;15.10;99.90;;;;;;5071944;28;20074;-65
2021/04/28 10:39:52;;;;;;;3.80;1.50;;;15.20;99.90;;;;;;5070841;28;20025;-65
2021/04/28 10:42:36;;;;;;;2.67;1.40;;;15.30;99.90;;;;;;5072471;28;20044;-66
2021/04/28 10:45:24;;;;;;;3.05;1.40;;;15.30;99.90;;;;;;5071587;28;20525;-64
2021/04/28 10:47:51;;;;;;;3.03;1.23;;;15.30;99.90;;;;;;5072138;28;20021;-67
2021/04/28 10:50:36;;;;;;;3.08;1.30;;;15.40;99.90;;;;;;5067345;28;20021;-67
2021/04/28 10:53:16;;;;;;;1.15;1.00;;;15.30;99.90;;;;;;5055663;28;20033;-65
2021/04/28 10:56:06;;;;;;;1.17;1.08;;;15.50;99.90;;;;;;5051460;28;20028;-63
2021/04/28 10:58:37;;;;;;;1.10;1.00;;;15.50;99.90;;;;;;5068364;28;20021;-62
2021/04/28 11:01:04;;;;;;;1.15;1.00;;;15.50;99.90;;;;;;5071661;28;20051;-64
2021/04/28 11:03:31;;;;;;;2.78;1.58;;;15.40;99.90;;;;;;5070082;28;20413;-64
2021/04/28 11:09:06;;;;;;;1.20;1.00;;;15.20;99.90;;;;;;5073436;28;20409;-63
2021/04/28 11:14:17;;;;;;;1.55;1.30;;;15.30;99.90;;;;;;5061875;28;20482;-66
2021/04/28 11:16:49;;;;;;;2.55;1.25;;;15.50;99.90;;;;;;5071353;28;20089;-67
2021/04/28 11:19:14;;;;;;;1.50;1.20;;;15.50;99.90;;;;;;5071220;28;20037;-64
2021/04/28 11:21:42;;;;;;;1.45;1.00;;;15.60;99.90;;;;;;5072195;28;20029;-66
2021/04/28 11:24:16;;;;;;;1.90;0.88;;;15.50;99.90;;;;;;5057933;28;20540;-67
2021/04/28 11:26:52;;;;;;;2.05;1.38;;;15.50;99.90;;;;;;5070960;28;20064;-66
2021/04/28 11:29:20;;;;;;;1.73;1.45;;;15.70;99.90;;;;;;5060149;28;20128;-63
2021/04/28 11:31:57;;;;;;;2.55;1.58;;;15.60;99.90;;;;;;5069368;28;20017;-63
2021/04/28 11:34:29;;;;;;;1.70;1.50;;;15.60;99.90;;;;;;5070784;28;20542;-67
2021/04/28 11:36:56;;;;;;;2.90;1.45;;;15.70;99.90;;;;;;5068328;28;20021;-68
2021/04/28 11:39:42;;;;;;;1.92;1.30;;;15.80;99.90;;;;;;5067347;28;20046;-66
2021/04/28 11:42:13;;;;;;;3.90;2.03;;;15.90;99.90;;;;;;5067960;28;20698;-64
2021/04/28 11:44:45;;;;;;;1.90;1.63;;;15.90;99.90;;;;;;5067310;28;20032;-66
2021/04/28 11:47:23;;;;;;;2.17;1.83;;;16.00;99.90;;;;;;5067321;28;20032;-64
2021/04/28 11:49:52;;;;;;;1.70;1.60;;;16.20;99.90;;;;;;5065118;28;20166;-68
2021/04/28 11:52:19;;;;;;;2.60;2.10;;;16.30;99.90;;;;;;5068380;28;20447;-66
2021/04/28 11:54:51;;;;;;;4.78;2.75;;;16.60;99.90;;;;;;5066456;28;20017;-69
2021/04/28 11:57:27;;;;;;;3.08;2.00;;;16.60;99.90;;;;;;5069223;28;20024;-68
2021/04/28 12:00:09;;;;;;;3.90;2.22;;;16.90;99.90;;;;;;5066437;28;20051;-66
2021/04/28 12:02:35;;;;;;;2.63;1.85;;;17.00;99.90;;;;;;5066487;28;20591;-68
2021/04/28 12:05:02;;;;;;;2.53;1.90;;;17.00;99.90;;;;;;5068310;28;20032;-66
2021/04/28 12:07:27;;;;;;;2.33;2.13;;;17.40;99.90;;;;;;5068411;28;20013;-66
2021/04/28 12:09:54;;;;;;;3.50;2.20;;;17.30;99.90;;;;;;5068543;28;20039;-66
2021/04/28 12:12:27;;;;;;;3.45;1.55;;;17.30;99.90;;;;;;5066817;28;20192;-68
2021/04/28 12:15:05;;;;;;;1.83;1.63;;;17.50;99.90;;;;;;5067045;28;20047;-68
2021/04/28 12:17:33;;;;;;;2.85;1.85;;;17.20;99.90;;;;;;5064217;28;20020;-67
2021/04/28 12:20:00;;;;;;;3.35;1.73;;;17.20;99.90;;;;;;5066907;28;20039;-68
2021/04/28 12:22:30;;;;;;;2.05;1.83;;;17.30;99.90;;;;;;5065538;28;20033;-69
2021/04/28 12:24:57;;;;;;;3.25;1.83;;;17.40;99.90;;;;;;5066819;28;20031;-65
2021/04/28 12:27:25;;;;;;;2.70;1.98;;;17.20;99.90;;;;;;5069330;28;20036;-65
2021/04/28 12:30:19;;;;;;;2.03;1.80;;;17.10;99.90;;;;;;5068064;28;20433;-66
2021/04/28 12:32:50;;;;;;;2.50;1.92;;;17.00;99.90;;;;;;5080264;28;20021;-66
2021/04/28 12:35:23;;;;;;;2.38;1.70;;;16.70;99.90;;;;;;5068584;28;20069;-69
2021/04/28 12:38:13;;;;;;;2.03;1.40;;;16.80;99.90;;;;;;5066431;28;20030;-64
2021/04/28 12:40:54;;;;;;;2.40;1.73;;;16.60;99.90;;;;;;5066132;28;20032;-66
2021/04/28 12:43:44;;;;;;;2.20;1.50;;;16.40;99.90;;;;;;5064905;28;20462;-65
2021/04/28 12:46:14;;;;;;;1.42;1.20;;;16.30;99.90;;;;;;5056021;28;20052;-62
2021/04/28 12:49:03;;;;;;;3.33;1.55;;;16.20;99.90;;;;;;5065219;28;20774;-67
2021/04/28 12:51:31;;;;;;;1.25;1.15;;;16.20;99.90;;;;;;5065159;28;20042;-65
2021/04/28 12:53:58;;;;;;;1.13;1.00;;;16.10;99.90;;;;;;5064655;28;20409;-66
2021/04/28 12:56:36;;;;;;;1.10;1.00;;;16.00;99.90;;;;;;5065916;28;20025;-64
2021/04/28 12:59:13;;;;;;;0.70;0.70;;;16.00;99.90;;;;;;5065789;28;20037;-66
2021/04/28 13:01:38;;;;;;;1.48;0.90;;;16.20;99.90;;;;;;5066067;28;20060;-67